Terminal Aerodrome Forecast
Issued by NWS

Home | Current Version | Previous Version | Text Only | Print | Product List | Glossary Off
Versions: 1 2 3 4 5 6 7 8 9 10 11 12 13

117
FTUS43 KBIS 132326
TAFMOT
TAF
KMOT 132326Z 1400/1424 22011KT P6SM SKC
     FM140200 25011KT P6SM SKC
     FM141700 22008KT P6SM FEW250=

USA.gov is the U.S. government's official web portal to all federal, state and local government web resources and services.